createdAt,value
2022-12-16T00:01:11.115Z,-8.00
2022-12-16T00:03:41.411Z,-8.01
2022-12-16T00:06:10.303Z,-7.97
2022-12-16T00:08:39.721Z,-7.90
2022-12-16T00:11:08.671Z,-7.90
2022-12-16T00:13:38.254Z,-7.91
2022-12-16T00:16:07.894Z,-7.87
2022-12-16T00:18:36.772Z,-7.86
2022-12-16T00:21:06.692Z,-7.86
2022-12-16T00:23:35.707Z,-7.91
2022-12-16T00:26:04.167Z,-7.94
2022-12-16T00:28:32.585Z,-7.93
2022-12-16T00:31:00.902Z,-7.98
2022-12-16T00:33:29.443Z,-8.03
2022-12-16T00:35:58.220Z,-8.03
2022-12-16T00:38:28.251Z,-8.04
2022-12-16T00:40:56.346Z,-8.04
2022-12-16T00:43:24.521Z,-8.05
2022-12-16T00:45:52.582Z,-8.04
2022-12-16T00:48:22.883Z,-7.94
2022-12-16T00:50:51.986Z,-7.89
2022-12-16T00:53:20.440Z,-7.90
2022-12-16T00:55:52.386Z,-7.91
2022-12-16T00:58:21.694Z,-7.91
2022-12-16T01:00:52.510Z,-7.90
2022-12-16T01:03:22.012Z,-7.91
2022-12-16T01:05:50.393Z,-7.97
2022-12-16T01:08:18.630Z,-8.00
2022-12-16T01:10:52.960Z,-8.04
2022-12-16T01:13:25.117Z,-8.07
2022-12-16T01:15:53.346Z,-8.15
2022-12-16T01:18:22.026Z,-8.18
2022-12-16T01:20:50.054Z,-8.18
2022-12-16T01:23:18.710Z,-8.17
2022-12-16T01:25:46.715Z,-8.18
2022-12-16T01:28:16.015Z,-8.22
2022-12-16T01:30:44.020Z,-8.25
2022-12-16T01:33:12.295Z,-8.29
2022-12-16T01:35:56.259Z,-8.29
2022-12-16T01:38:24.752Z,-8.32
2022-12-16T01:40:52.849Z,-8.28
2022-12-16T01:43:26.797Z,-8.31
2022-12-16T01:45:58.217Z,-8.34
2022-12-16T01:48:35.266Z,-8.41
2022-12-16T01:51:06.209Z,-8.46
2022-12-16T01:53:35.337Z,-8.48
2022-12-16T01:56:23.599Z,-8.55
2022-12-16T01:58:53.439Z,-8.62
2022-12-16T02:01:23.320Z,-8.73
2022-12-16T02:03:53.479Z,-8.74
2022-12-16T02:06:22.458Z,-8.72
2022-12-16T02:08:54.954Z,-8.70
2022-12-16T02:11:33.437Z,-8.65
2022-12-16T02:14:20.363Z,-8.69
2022-12-16T02:16:53.802Z,-8.73
2022-12-16T02:19:43.101Z,-8.82
2022-12-16T02:22:16.544Z,-8.83
2022-12-16T02:24:59.309Z,-8.82
2022-12-16T02:27:51.073Z,-8.79
2022-12-16T02:30:39.968Z,-8.70
2022-12-16T02:33:18.212Z,-8.66
2022-12-16T02:35:51.608Z,-8.63
2022-12-16T02:38:27.339Z,-8.57
2022-12-16T02:41:01.550Z,-8.55
2022-12-16T02:43:45.623Z,-8.49
2022-12-16T02:46:15.055Z,-8.39
2022-12-16T02:48:43.034Z,-8.35
2022-12-16T02:51:11.326Z,-8.28
2022-12-16T02:53:40.036Z,-8.18
2022-12-16T02:56:19.511Z,-8.14
2022-12-16T02:58:52.910Z,-8.17
2022-12-16T03:01:27.866Z,-8.18
2022-12-16T03:04:01.387Z,-8.25
2022-12-16T03:06:31.720Z,-8.26
2022-12-16T03:09:01.137Z,-8.32
2022-12-16T03:11:30.858Z,-8.34
2022-12-16T03:13:59.094Z,-8.35
2022-12-16T03:16:31.611Z,-8.41
2022-12-16T03:19:02.720Z,-8.44
2022-12-16T03:21:33.420Z,-8.39
2022-12-16T03:24:03.069Z,-8.36
2022-12-16T03:26:34.462Z,-8.39
2022-12-16T03:29:05.120Z,-8.35
2022-12-16T03:31:38.456Z,-8.39
2022-12-16T03:34:11.368Z,-8.42
2022-12-16T03:36:40.412Z,-8.42
2022-12-16T03:39:09.254Z,-8.49
2022-12-16T03:41:37.829Z,-8.50
2022-12-16T03:44:06.094Z,-8.46
2022-12-16T03:46:35.435Z,-8.46
2022-12-16T03:49:03.470Z,-8.41
2022-12-16T03:51:31.471Z,-8.44
2022-12-16T03:53:59.499Z,-8.55
2022-12-16T03:56:27.603Z,-8.56
2022-12-16T03:58:55.566Z,-8.59
2022-12-16T04:01:24.285Z,-8.67
2022-12-16T04:03:53.743Z,-8.74
2022-12-16T04:06:21.868Z,-8.80
2022-12-16T04:08:49.793Z,-8.80
2022-12-16T04:11:35.611Z,-8.76
2022-12-16T04:14:21.538Z,-8.70
2022-12-16T04:17:07.355Z,-8.72
2022-12-16T04:19:55.886Z,-8.76
2022-12-16T04:22:43.744Z,-8.80
2022-12-16T04:25:15.331Z,-8.79
2022-12-16T04:27:47.149Z,-8.76
2022-12-16T04:30:22.082Z,-8.79
2022-12-16T04:33:11.093Z,-8.79
2022-12-16T04:35:58.555Z,-8.86
2022-12-16T04:38:44.453Z,-8.92
2022-12-16T04:41:38.495Z,-9.00
2022-12-16T04:44:24.498Z,-9.01
2022-12-16T04:47:10.396Z,-9.01
2022-12-16T04:50:01.590Z,-9.04
2022-12-16T04:52:50.950Z,-9.01
2022-12-16T04:55:36.712Z,-8.93
2022-12-16T04:58:22.475Z,-8.90
2022-12-16T05:01:13.785Z,-8.93
2022-12-16T05:03:59.594Z,-8.93
2022-12-16T05:06:45.540Z,-8.92
2022-12-16T05:09:32.556Z,-8.93
2022-12-16T05:12:18.392Z,-8.90
2022-12-16T05:15:04.161Z,-8.96
2022-12-16T05:17:49.963Z,-8.93
2022-12-16T05:20:35.764Z,-8.92
2022-12-16T05:23:21.235Z,-8.92
2022-12-16T05:26:08.309Z,-8.94
2022-12-16T05:28:54.161Z,-8.99
2022-12-16T05:31:39.843Z,-8.99
2022-12-16T05:34:26.946Z,-9.01
2022-12-16T05:37:08.895Z,-8.94
2022-12-16T05:39:54.120Z,-8.89
2022-12-16T05:42:41.183Z,-8.99
2022-12-16T05:45:27.417Z,-9.03
2022-12-16T05:48:12.634Z,-9.11
2022-12-16T05:50:58.182Z,-9.20
2022-12-16T05:53:58.281Z,-9.27
2022-12-16T05:56:43.595Z,-9.35
2022-12-16T05:59:39.024Z,-9.45
2022-12-16T06:02:24.453Z,-9.56
2022-12-16T06:05:09.715Z,-9.65
2022-12-16T06:07:55.042Z,-9.66
2022-12-16T06:10:49.290Z,-9.66
2022-12-16T06:13:34.816Z,-9.73
2022-12-16T06:16:21.737Z,-9.76
2022-12-16T06:19:07.497Z,-9.79
2022-12-16T06:21:53.011Z,-9.90
2022-12-16T06:24:38.993Z,-9.96
2022-12-16T06:27:24.361Z,-10.03
2022-12-16T06:30:10.029Z,-10.09
2022-12-16T06:32:57.123Z,-10.11
2022-12-16T06:35:42.589Z,-10.06
2022-12-16T06:38:28.342Z,-10.07
2022-12-16T06:41:13.735Z,-10.09
2022-12-16T06:43:59.070Z,-10.14
2022-12-16T06:46:44.521Z,-10.17
2022-12-16T06:49:31.594Z,-10.17
2022-12-16T06:52:16.844Z,-10.21
2022-12-16T06:55:02.624Z,-10.25
2022-12-16T06:57:48.568Z,-10.28
2022-12-16T07:00:34.483Z,-10.34
2022-12-16T07:03:20.054Z,-10.35
2022-12-16T07:06:11.299Z,-10.37
2022-12-16T07:08:56.785Z,-10.37
2022-12-16T07:11:47.867Z,-10.40
2022-12-16T07:14:33.195Z,-10.24
2022-12-16T07:17:18.641Z,-10.14
2022-12-16T07:20:04.213Z,-10.11
2022-12-16T07:22:58.500Z,-10.09
2022-12-16T07:25:55.437Z,-10.09
2022-12-16T07:28:40.929Z,-10.10
2022-12-16T07:31:26.592Z,-10.11
2022-12-16T07:34:12.351Z,-10.13
2022-12-16T07:36:57.700Z,-10.16
2022-12-16T07:39:46.758Z,-10.18
2022-12-16T07:42:35.795Z,-10.21
2022-12-16T07:45:21.911Z,-10.25
2022-12-16T07:48:08.343Z,-10.24
2022-12-16T07:50:54.575Z,-10.23
2022-12-16T07:53:41.917Z,-10.23
2022-12-16T07:56:29.016Z,-10.21
2022-12-16T07:59:15.611Z,-10.21
2022-12-16T08:02:01.143Z,-10.21
2022-12-16T08:04:47.222Z,-10.18
2022-12-16T08:07:32.902Z,-10.11
2022-12-16T08:10:18.768Z,-10.02
2022-12-16T08:13:05.709Z,-9.90
2022-12-16T08:15:50.977Z,-9.83
2022-12-16T08:18:36.767Z,-9.70
2022-12-16T08:21:22.640Z,-9.58
2022-12-16T08:24:07.898Z,-9.44
2022-12-16T08:26:53.245Z,-9.31
2022-12-16T08:29:45.245Z,-9.21
2022-12-16T08:32:36.722Z,-9.13
2022-12-16T08:35:23.048Z,-8.99
2022-12-16T08:38:13.678Z,-8.89
2022-12-16T08:40:59.917Z,-8.74
2022-12-16T08:43:45.666Z,-8.53
2022-12-16T08:46:32.785Z,-8.29
2022-12-16T08:49:18.520Z,-8.13
2022-12-16T08:52:03.877Z,-7.95
2022-12-16T08:54:49.944Z,-7.72
2022-12-16T08:57:37.489Z,-7.43
2022-12-16T09:00:23.714Z,-7.15
2022-12-16T09:03:13.934Z,-6.87
2022-12-16T09:06:00.407Z,-6.53
2022-12-16T09:08:46.258Z,-6.12
2022-12-16T09:11:31.550Z,-5.77
2022-12-16T09:14:22.798Z,-5.56
2022-12-16T09:17:08.147Z,-5.43
2022-12-16T09:19:56.050Z,-5.33
2022-12-16T09:22:41.656Z,-5.29
2022-12-16T09:25:27.226Z,-5.25
2022-12-16T09:28:12.532Z,-5.20
2022-12-16T09:30:58.062Z,-5.19
2022-12-16T09:33:43.909Z,-5.15
2022-12-16T09:36:30.844Z,-5.09
2022-12-16T09:39:16.217Z,-5.05
2022-12-16T09:42:02.598Z,-5.01
2022-12-16T09:45:06.203Z,-4.97
2022-12-16T09:47:57.305Z,-4.94
2022-12-16T09:50:45.117Z,-4.91
2022-12-16T09:53:34.779Z,-4.85
2022-12-16T09:56:21.586Z,-4.80
2022-12-16T09:59:10.623Z,-4.73
2022-12-16T10:01:57.155Z,-4.60
2022-12-16T10:04:43.452Z,-4.53
2022-12-16T10:07:35.029Z,-4.40
2022-12-16T10:10:36.307Z,-4.28
2022-12-16T10:13:26.238Z,-4.20
2022-12-16T10:16:17.263Z,-4.06
2022-12-16T10:19:10.496Z,-3.97
2022-12-16T10:22:02.001Z,-3.91
2022-12-16T10:24:53.535Z,-3.84
2022-12-16T10:27:44.860Z,-3.77
2022-12-16T10:30:31.633Z,-3.63
2022-12-16T10:33:17.695Z,-3.50
2022-12-16T10:36:05.760Z,-3.40
2022-12-16T10:38:56.638Z,-3.24
2022-12-16T10:41:45.346Z,-3.15
2022-12-16T10:44:41.041Z,-3.02
2022-12-16T10:47:28.373Z,-2.99
2022-12-16T10:50:14.490Z,-2.95
2022-12-16T10:53:11.595Z,-2.89
2022-12-16T10:56:10.846Z,-2.87
2022-12-16T10:59:03.355Z,-2.84
2022-12-16T11:01:50.640Z,-2.84
2022-12-16T11:04:50.681Z,-2.78
2022-12-16T11:07:45.629Z,-2.75
2022-12-16T11:10:45.793Z,-2.72
2022-12-16T11:13:36.517Z,-2.68
2022-12-16T11:16:28.721Z,-2.65
2022-12-16T11:19:15.885Z,-2.67
2022-12-16T11:22:01.666Z,-2.60
2022-12-16T11:24:47.508Z,-2.57
2022-12-16T11:27:35.539Z,-2.53
2022-12-16T11:30:23.295Z,-2.49
2022-12-16T11:33:11.553Z,-2.49
2022-12-16T11:36:00.507Z,-2.43
2022-12-16T11:38:50.004Z,-2.39
2022-12-16T11:41:44.146Z,-2.39
2022-12-16T11:44:37.393Z,-2.40
2022-12-16T11:47:27.602Z,-2.37
2022-12-16T11:50:14.987Z,-2.36
2022-12-16T11:53:09.082Z,-2.34
2022-12-16T11:56:05.895Z,-2.34
2022-12-16T11:59:00.911Z,-2.36
2022-12-16T12:01:50.840Z,-2.41
2022-12-16T12:04:36.998Z,-2.44
2022-12-16T12:07:32.656Z,-2.49
2022-12-16T12:10:25.157Z,-2.47
2022-12-16T12:13:14.039Z,-2.41
2022-12-16T12:16:03.620Z,-2.43
2022-12-16T12:18:56.671Z,-2.41
2022-12-16T12:21:46.888Z,-2.43
2022-12-16T12:24:42.392Z,-2.47
2022-12-16T12:27:35.360Z,-2.47
2022-12-16T12:30:23.940Z,-2.41
2022-12-16T12:33:19.523Z,-2.40
2022-12-16T12:36:15.460Z,-2.39
2022-12-16T12:39:11.457Z,-2.43
2022-12-16T12:42:11.069Z,-2.49
2022-12-16T12:45:05.517Z,-2.50
2022-12-16T12:47:48.359Z,-2.51
2022-12-16T12:50:40.784Z,-2.49
2022-12-16T12:53:30.473Z,-2.46
2022-12-16T12:56:23.697Z,-2.46
2022-12-16T12:59:10.446Z,-2.40
2022-12-16T13:01:59.757Z,-2.39
2022-12-16T13:04:46.286Z,-2.39
2022-12-16T13:07:32.145Z,-2.36
2022-12-16T13:10:46.042Z,-2.37
2022-12-16T13:13:50.364Z,-2.37
2022-12-16T13:17:25.877Z,-2.39
2022-12-16T13:20:14.559Z,-2.43
2022-12-16T13:23:00.709Z,-2.46
2022-12-16T13:25:51.303Z,-2.46
2022-12-16T13:28:47.133Z,-2.47
2022-12-16T13:31:33.057Z,-2.44
2022-12-16T13:34:23.880Z,-2.43
2022-12-16T13:37:19.509Z,-2.43
2022-12-16T13:40:20.351Z,-2.40
2022-12-16T13:43:11.465Z,-2.40
2022-12-16T13:45:59.960Z,-2.39
2022-12-16T13:48:56.133Z,-2.41
2022-12-16T13:52:24.266Z,-2.39
2022-12-16T13:55:25.172Z,-2.46
2022-12-16T13:58:13.547Z,-2.43
2022-12-16T14:01:00.515Z,-2.46
2022-12-16T14:03:57.084Z,-2.46
2022-12-16T14:06:44.677Z,-2.47
2022-12-16T14:09:44.526Z,-2.49
2022-12-16T14:12:40.840Z,-2.49
2022-12-16T14:15:37.984Z,-2.51
2022-12-16T14:18:33.202Z,-2.54
2022-12-16T14:21:22.432Z,-2.57
2022-12-16T14:24:12.770Z,-2.61
2022-12-16T14:26:58.765Z,-2.61
2022-12-16T14:29:45.994Z,-2.65
2022-12-16T14:32:40.146Z,-2.65
2022-12-16T14:35:31.203Z,-2.71
2022-12-16T14:38:17.097Z,-2.71
2022-12-16T14:41:08.943Z,-2.72
2022-12-16T14:43:57.782Z,-2.77
2022-12-16T14:46:47.427Z,-2.81
2022-12-16T14:49:38.809Z,-2.84
2022-12-16T14:52:49.389Z,-2.87
2022-12-16T14:55:37.300Z,-2.89
2022-12-16T14:58:24.481Z,-2.91
2022-12-16T15:01:15.552Z,-2.93
2022-12-16T15:04:10.388Z,-2.95
2022-12-16T15:06:58.705Z,-2.98
2022-12-16T15:09:46.839Z,-2.98
2022-12-16T15:12:34.797Z,-3.03
2022-12-16T15:15:22.589Z,-3.02
2022-12-16T15:18:09.448Z,-3.08
2022-12-16T15:21:01.339Z,-3.02
2022-12-16T15:23:51.291Z,-3.08
2022-12-16T15:26:38.720Z,-3.06
2022-12-16T15:29:46.091Z,-3.09
2022-12-16T15:32:48.238Z,-3.10
2022-12-16T15:35:44.933Z,-3.12
2022-12-16T15:38:37.391Z,-3.12
2022-12-16T15:41:24.478Z,-3.15
2022-12-16T15:44:10.781Z,-3.17
2022-12-16T15:46:56.613Z,-3.15
2022-12-16T15:50:04.046Z,-3.17
2022-12-16T15:52:54.070Z,-3.20
2022-12-16T15:55:50.741Z,-3.22
2022-12-16T15:58:40.802Z,-3.22
2022-12-16T16:01:35.560Z,-3.22
2022-12-16T16:04:21.889Z,-3.23
2022-12-16T16:07:09.350Z,-3.24
2022-12-16T16:09:56.304Z,-3.24
2022-12-16T16:12:43.886Z,-3.26
2022-12-16T16:15:31.346Z,-3.27
2022-12-16T16:18:18.886Z,-3.27
2022-12-16T16:21:04.980Z,-3.27
2022-12-16T16:23:50.809Z,-3.26
2022-12-16T16:26:38.626Z,-3.29
2022-12-16T16:29:25.869Z,-3.29
2022-12-16T16:32:11.688Z,-3.27
2022-12-16T16:35:12.193Z,-3.30
2022-12-16T16:37:58.102Z,-3.29
2022-12-16T16:40:53.911Z,-3.30
2022-12-16T16:43:40.149Z,-3.29
2022-12-16T16:46:37.439Z,-3.32
2022-12-16T16:49:23.300Z,-3.29
2022-12-16T16:52:09.164Z,-3.29
2022-12-16T16:54:54.961Z,-3.30
2022-12-16T16:57:40.483Z,-3.30
2022-12-16T17:00:29.221Z,-3.33
2022-12-16T17:03:28.116Z,-3.33
2022-12-16T17:06:10.493Z,-3.32
2022-12-16T17:09:07.450Z,-3.35
2022-12-16T17:11:52.776Z,-3.35
2022-12-16T17:14:39.149Z,-3.36
2022-12-16T17:17:25.453Z,-3.37
2022-12-16T17:20:12.468Z,-3.39
2022-12-16T17:22:58.184Z,-3.40
2022-12-16T17:25:43.847Z,-3.40
2022-12-16T17:28:30.275Z,-3.42
2022-12-16T17:31:16.127Z,-3.40
2022-12-16T17:34:02.079Z,-3.43
2022-12-16T17:36:57.528Z,-3.44
2022-12-16T17:39:43.418Z,-3.42
2022-12-16T17:42:29.022Z,-3.43
2022-12-16T17:45:14.662Z,-3.42
2022-12-16T17:48:05.877Z,-3.44
2022-12-16T17:50:51.657Z,-3.46
2022-12-16T17:53:38.699Z,-3.47
2022-12-16T17:56:24.452Z,-3.44
2022-12-16T17:59:11.305Z,-3.46
2022-12-16T18:01:56.831Z,-3.47
2022-12-16T18:04:42.738Z,-3.47
2022-12-16T18:07:28.341Z,-3.49
2022-12-16T18:10:15.318Z,-3.44
2022-12-16T18:13:01.128Z,-3.46
2022-12-16T18:15:46.494Z,-3.46
2022-12-16T18:18:32.384Z,-3.43
2022-12-16T18:21:27.366Z,-3.43
2022-12-16T18:24:13.241Z,-3.39
2022-12-16T18:27:00.500Z,-3.42
2022-12-16T18:29:46.465Z,-3.39
2022-12-16T18:32:35.279Z,-3.40
2022-12-16T18:35:31.042Z,-3.43
2022-12-16T18:38:19.739Z,-3.43
2022-12-16T18:41:06.995Z,-3.43
2022-12-16T18:43:56.164Z,-3.43
2022-12-16T18:46:44.607Z,-3.42
2022-12-16T18:49:30.575Z,-3.42
2022-12-16T18:52:16.409Z,-3.40
2022-12-16T18:55:01.990Z,-3.40
2022-12-16T18:57:50.345Z,-3.40
2022-12-16T19:00:37.727Z,-3.39
2022-12-16T19:03:23.786Z,-3.37
2022-12-16T19:06:12.605Z,-3.39
2022-12-16T19:08:58.419Z,-3.40
2022-12-16T19:11:46.015Z,-3.39
2022-12-16T19:14:33.738Z,-3.39
2022-12-16T19:17:21.259Z,-3.40
2022-12-16T19:20:12.670Z,-3.39
2022-12-16T19:23:02.871Z,-3.39
2022-12-16T19:25:48.883Z,-3.37
2022-12-16T19:28:40.576Z,-3.36
2022-12-16T19:31:32.660Z,-3.35
2022-12-16T19:34:22.846Z,-3.35
2022-12-16T19:37:08.694Z,-3.32
2022-12-16T19:39:56.813Z,-3.33
2022-12-16T19:42:42.852Z,-3.35
2022-12-16T19:45:28.824Z,-3.32
2022-12-16T19:48:19.262Z,-3.29
2022-12-16T19:51:06.307Z,-3.30
2022-12-16T19:53:52.156Z,-3.30
2022-12-16T19:56:37.950Z,-3.27
2022-12-16T19:59:23.739Z,-3.26
2022-12-16T20:02:09.649Z,-3.24
2022-12-16T20:04:56.192Z,-3.24
2022-12-16T20:07:43.458Z,-3.23
2022-12-16T20:10:29.634Z,-3.24
2022-12-16T20:16:32.510Z,-3.23
2022-12-16T20:19:18.061Z,-3.20
2022-12-16T20:22:06.808Z,-3.19
2022-12-16T20:24:56.374Z,-3.17
2022-12-16T20:27:42.482Z,-3.16
2022-12-16T20:30:29.779Z,-3.16
2022-12-16T20:33:15.697Z,-3.15
2022-12-16T20:36:01.021Z,-3.13
2022-12-16T20:38:46.833Z,-3.12
2022-12-16T20:41:33.715Z,-3.10
2022-12-16T20:44:19.580Z,-3.09
2022-12-16T20:47:04.947Z,-3.09
2022-12-16T20:50:05.084Z,-3.10
2022-12-16T20:52:50.640Z,-3.08
2022-12-16T20:55:37.240Z,-3.09
2022-12-16T20:58:24.466Z,-3.05
2022-12-16T21:01:10.830Z,-3.08
2022-12-16T21:03:56.481Z,-3.03
2022-12-16T21:06:42.241Z,-3.02
2022-12-16T21:09:28.056Z,-3.03
2022-12-16T21:12:18.457Z,-3.02
2022-12-16T21:15:05.522Z,-2.99
2022-12-16T21:17:51.103Z,-2.99
2022-12-16T21:20:37.687Z,-2.99
2022-12-16T21:23:24.494Z,-2.95
2022-12-16T21:26:10.214Z,-2.96
2022-12-16T21:28:56.292Z,-2.93
2022-12-16T21:31:43.681Z,-2.96
2022-12-16T21:34:30.450Z,-2.93
2022-12-16T21:37:15.931Z,-2.91
2022-12-16T21:40:01.801Z,-2.93
2022-12-16T21:42:47.701Z,-2.92
2022-12-16T21:45:33.537Z,-2.91
2022-12-16T21:48:20.596Z,-2.88
2022-12-16T21:51:09.107Z,-2.89
2022-12-16T21:53:55.458Z,-2.88
2022-12-16T21:56:42.293Z,-2.85
2022-12-16T21:59:27.883Z,-2.84
2022-12-16T22:02:13.505Z,-2.82
2022-12-16T22:05:00.263Z,-2.82
2022-12-16T22:07:46.403Z,-2.81
2022-12-16T22:10:32.189Z,-2.81
2022-12-16T22:13:18.033Z,-2.81
2022-12-16T22:16:13.361Z,-2.81
2022-12-16T22:18:58.981Z,-2.82
2022-12-16T22:21:46.042Z,-2.77
2022-12-16T22:24:31.706Z,-2.78
2022-12-16T22:27:17.667Z,-2.77
2022-12-16T22:30:03.734Z,-2.78
2022-12-16T22:32:49.761Z,-2.78
2022-12-16T22:35:35.487Z,-2.74
2022-12-16T22:38:22.627Z,-2.77
2022-12-16T22:41:13.346Z,-2.77
2022-12-16T22:44:01.400Z,-2.77
2022-12-16T22:46:47.040Z,-2.72
2022-12-16T22:49:32.952Z,-2.74
2022-12-16T22:52:18.492Z,-2.72
2022-12-16T22:55:06.082Z,-2.71
2022-12-16T22:57:53.368Z,-2.68
2022-12-16T23:00:39.497Z,-2.68
2022-12-16T23:03:25.553Z,-2.68
2022-12-16T23:06:11.473Z,-2.67
2022-12-16T23:08:57.384Z,-2.67
2022-12-16T23:11:51.163Z,-2.67
2022-12-16T23:14:42.646Z,-2.64
2022-12-16T23:17:29.210Z,-2.67
2022-12-16T23:20:15.021Z,-2.67
2022-12-16T23:23:00.791Z,-2.67
2022-12-16T23:25:46.441Z,-2.65
2022-12-16T23:28:33.184Z,-2.65
2022-12-16T23:31:19.020Z,-2.64
2022-12-16T23:34:04.921Z,-2.61
2022-12-16T23:36:50.387Z,-2.60
2022-12-16T23:39:36.068Z,-2.58
2022-12-16T23:42:21.495Z,-2.61
2022-12-16T23:45:08.623Z,-2.64
2022-12-16T23:47:55.541Z,-2.64
2022-12-16T23:50:42.295Z,-2.65
2022-12-16T23:53:29.167Z,-2.65
2022-12-16T23:56:15.257Z,-2.64
2022-12-16T23:59:01.016Z,-2.65
